sensor_id;sensor_type;location;lat;lon;timestamp;P1;durP1;ratioP1;P2;durP2;ratioP2
16998;SDS011;10211;49.476;11.010;2023-07-29T00:00:41;1.40;;;1.30;;
16998;SDS011;10211;49.476;11.010;2023-07-29T00:03:08;1.60;;;1.50;;
16998;SDS011;10211;49.476;11.010;2023-07-29T00:05:34;1.40;;;1.30;;
16998;SDS011;10211;49.476;11.010;2023-07-29T00:08:04;1.50;;;1.37;;
16998;SDS011;10211;49.476;11.010;2023-07-29T00:10:31;4.83;;;1.87;;
16998;SDS011;10211;49.476;11.010;2023-07-29T00:12:59;2.07;;;1.90;;
16998;SDS011;10211;49.476;11.010;2023-07-29T00:15:25;2.50;;;1.63;;
16998;SDS011;10211;49.476;11.010;2023-07-29T00:17:52;2.40;;;1.50;;
16998;SDS011;10211;49.476;11.010;2023-07-29T00:20:20;1.83;;;1.60;;
16998;SDS011;10211;49.476;11.010;2023-07-29T00:22:47;1.53;;;1.43;;
16998;SDS011;10211;49.476;11.010;2023-07-29T00:25:16;1.30;;;1.20;;
16998;SDS011;10211;49.476;11.010;2023-07-29T00:27:43;1.57;;;1.47;;
16998;SDS011;10211;49.476;11.010;2023-07-29T00:30:10;1.73;;;1.63;;
16998;SDS011;10211;49.476;11.010;2023-07-29T00:32:37;1.87;;;1.77;;
16998;SDS011;10211;49.476;11.010;2023-07-29T00:35:04;2.30;;;1.87;;
16998;SDS011;10211;49.476;11.010;2023-07-29T00:37:32;2.00;;;1.67;;
16998;SDS011;10211;49.476;11.010;2023-07-29T00:39:59;1.87;;;1.77;;
16998;SDS011;10211;49.476;11.010;2023-07-29T00:42:27;1.50;;;1.40;;
16998;SDS011;10211;49.476;11.010;2023-07-29T00:44:54;2.33;;;1.77;;
16998;SDS011;10211;49.476;11.010;2023-07-29T00:47:20;2.60;;;2.17;;
16998;SDS011;10211;49.476;11.010;2023-07-29T00:49:49;2.40;;;1.90;;
16998;SDS011;10211;49.476;11.010;2023-07-29T00:52:17;2.07;;;1.87;;
16998;SDS011;10211;49.476;11.010;2023-07-29T00:54:44;1.50;;;1.40;;
16998;SDS011;10211;49.476;11.010;2023-07-29T00:57:10;2.20;;;2.00;;
16998;SDS011;10211;49.476;11.010;2023-07-29T00:59:41;1.80;;;1.70;;
16998;SDS011;10211;49.476;11.010;2023-07-29T01:02:08;3.07;;;1.73;;
16998;SDS011;10211;49.476;11.010;2023-07-29T01:04:35;2.80;;;2.00;;
16998;SDS011;10211;49.476;11.010;2023-07-29T01:07:03;2.00;;;1.80;;
16998;SDS011;10211;49.476;11.010;2023-07-29T01:09:40;2.00;;;1.90;;
16998;SDS011;10211;49.476;11.010;2023-07-29T01:12:16;3.03;;;2.30;;
16998;SDS011;10211;49.476;11.010;2023-07-29T01:14:51;3.50;;;2.40;;
16998;SDS011;10211;49.476;11.010;2023-07-29T01:17:27;2.27;;;2.07;;
16998;SDS011;10211;49.476;11.010;2023-07-29T01:20:00;2.10;;;1.90;;
16998;SDS011;10211;49.476;11.010;2023-07-29T01:22:28;3.40;;;2.40;;
16998;SDS011;10211;49.476;11.010;2023-07-29T01:24:58;2.43;;;1.73;;
16998;SDS011;10211;49.476;11.010;2023-07-29T01:27:25;3.87;;;1.93;;
16998;SDS011;10211;49.476;11.010;2023-07-29T01:29:51;2.53;;;2.33;;
16998;SDS011;10211;49.476;11.010;2023-07-29T01:32:19;2.20;;;2.00;;
16998;SDS011;10211;49.476;11.010;2023-07-29T01:34:53;3.63;;;2.30;;
16998;SDS011;10211;49.476;11.010;2023-07-29T01:37:25;2.50;;;2.00;;
16998;SDS011;10211;49.476;11.010;2023-07-29T01:39:57;2.70;;;2.43;;
16998;SDS011;10211;49.476;11.010;2023-07-29T01:42:25;4.27;;;2.53;;
16998;SDS011;10211;49.476;11.010;2023-07-29T01:44:53;2.60;;;2.40;;
16998;SDS011;10211;49.476;11.010;2023-07-29T01:47:20;3.00;;;2.30;;
16998;SDS011;10211;49.476;11.010;2023-07-29T01:49:47;2.33;;;2.13;;
16998;SDS011;10211;49.476;11.010;2023-07-29T01:52:14;2.53;;;2.13;;
16998;SDS011;10211;49.476;11.010;2023-07-29T01:54:40;2.87;;;2.67;;
16998;SDS011;10211;49.476;11.010;2023-07-29T01:57:09;2.60;;;2.40;;
16998;SDS011;10211;49.476;11.010;2023-07-29T01:59:36;2.50;;;2.17;;
16998;SDS011;10211;49.476;11.010;2023-07-29T02:02:03;3.83;;;2.70;;
16998;SDS011;10211;49.476;11.010;2023-07-29T02:04:30;2.70;;;2.10;;
16998;SDS011;10211;49.476;11.010;2023-07-29T02:06:56;2.43;;;2.23;;
16998;SDS011;10211;49.476;11.010;2023-07-29T02:09:23;2.30;;;2.10;;
16998;SDS011;10211;49.476;11.010;2023-07-29T02:11:50;2.47;;;2.27;;
16998;SDS011;10211;49.476;11.010;2023-07-29T02:14:18;3.77;;;2.60;;
16998;SDS011;10211;49.476;11.010;2023-07-29T02:16:45;2.90;;;2.60;;
16998;SDS011;10211;49.476;11.010;2023-07-29T02:19:12;3.03;;;2.80;;
16998;SDS011;10211;49.476;11.010;2023-07-29T02:21:38;4.93;;;2.60;;
16998;SDS011;10211;49.476;11.010;2023-07-29T02:24:05;3.83;;;2.83;;
16998;SDS011;10211;49.476;11.010;2023-07-29T02:26:32;3.83;;;2.67;;
16998;SDS011;10211;49.476;11.010;2023-07-29T02:28:59;3.87;;;2.63;;
16998;SDS011;10211;49.476;11.010;2023-07-29T02:31:27;2.10;;;1.90;;
16998;SDS011;10211;49.476;11.010;2023-07-29T02:33:53;4.63;;;2.53;;
16998;SDS011;10211;49.476;11.010;2023-07-29T02:36:21;3.10;;;2.80;;
16998;SDS011;10211;49.476;11.010;2023-07-29T02:38:48;2.57;;;2.37;;
16998;SDS011;10211;49.476;11.010;2023-07-29T02:41:14;2.57;;;2.37;;
16998;SDS011;10211;49.476;11.010;2023-07-29T02:43:41;3.07;;;2.77;;
16998;SDS011;10211;49.476;11.010;2023-07-29T02:46:09;3.13;;;2.90;;
16998;SDS011;10211;49.476;11.010;2023-07-29T02:48:37;3.27;;;3.03;;
16998;SDS011;10211;49.476;11.010;2023-07-29T02:51:03;2.87;;;2.60;;
16998;SDS011;10211;49.476;11.010;2023-07-29T02:53:30;3.00;;;2.70;;
16998;SDS011;10211;49.476;11.010;2023-07-29T02:55:57;3.53;;;2.80;;
16998;SDS011;10211;49.476;11.010;2023-07-29T02:58:24;3.97;;;2.80;;
16998;SDS011;10211;49.476;11.010;2023-07-29T03:00:51;2.97;;;2.70;;
16998;SDS011;10211;49.476;11.010;2023-07-29T03:03:18;3.90;;;2.97;;
16998;SDS011;10211;49.476;11.010;2023-07-29T03:05:46;2.83;;;2.63;;
16998;SDS011;10211;49.476;11.010;2023-07-29T03:08:13;3.33;;;2.60;;
16998;SDS011;10211;49.476;11.010;2023-07-29T03:10:40;3.57;;;2.67;;
16998;SDS011;10211;49.476;11.010;2023-07-29T03:13:07;4.03;;;2.60;;
16998;SDS011;10211;49.476;11.010;2023-07-29T03:15:33;4.40;;;2.90;;
16998;SDS011;10211;49.476;11.010;2023-07-29T03:18:00;5.57;;;3.50;;
16998;SDS011;10211;49.476;11.010;2023-07-29T03:20:27;2.50;;;2.30;;
16998;SDS011;10211;49.476;11.010;2023-07-29T03:22:55;4.10;;;3.30;;
16998;SDS011;10211;49.476;11.010;2023-07-29T03:25:22;2.50;;;2.30;;
16998;SDS011;10211;49.476;11.010;2023-07-29T03:27:49;3.47;;;3.17;;
16998;SDS011;10211;49.476;11.010;2023-07-29T03:30:18;3.50;;;3.20;;
16998;SDS011;10211;49.476;11.010;2023-07-29T03:32:45;4.73;;;3.30;;
16998;SDS011;10211;49.476;11.010;2023-07-29T03:35:12;3.90;;;3.03;;
16998;SDS011;10211;49.476;11.010;2023-07-29T03:37:39;5.57;;;3.03;;
16998;SDS011;10211;49.476;11.010;2023-07-29T03:40:08;2.90;;;2.70;;
16998;SDS011;10211;49.476;11.010;2023-07-29T03:42:35;6.27;;;3.37;;
16998;SDS011;10211;49.476;11.010;2023-07-29T03:45:02;7.47;;;3.23;;
16998;SDS011;10211;49.476;11.010;2023-07-29T03:47:30;4.03;;;3.20;;
16998;SDS011;10211;49.476;11.010;2023-07-29T03:49:56;6.13;;;3.17;;
16998;SDS011;10211;49.476;11.010;2023-07-29T03:52:23;3.47;;;3.17;;
16998;SDS011;10211;49.476;11.010;2023-07-29T03:54:50;3.63;;;3.33;;
16998;SDS011;10211;49.476;11.010;2023-07-29T03:57:18;5.57;;;3.97;;
16998;SDS011;10211;49.476;11.010;2023-07-29T03:59:45;9.60;;;3.27;;
16998;SDS011;10211;49.476;11.010;2023-07-29T04:02:11;5.63;;;3.73;;
16998;SDS011;10211;49.476;11.010;2023-07-29T04:04:38;3.40;;;3.10;;
16998;SDS011;10211;49.476;11.010;2023-07-29T04:07:06;3.67;;;3.27;;
16998;SDS011;10211;49.476;11.010;2023-07-29T04:09:33;3.83;;;3.43;;
16998;SDS011;10211;49.476;11.010;2023-07-29T04:12:00;4.10;;;3.70;;
16998;SDS011;10211;49.476;11.010;2023-07-29T04:14:28;4.97;;;3.60;;
16998;SDS011;10211;49.476;11.010;2023-07-29T04:16:55;4.97;;;3.87;;
16998;SDS011;10211;49.476;11.010;2023-07-29T04:19:21;4.23;;;3.83;;
16998;SDS011;10211;49.476;11.010;2023-07-29T04:21:48;5.17;;;3.23;;
16998;SDS011;10211;49.476;11.010;2023-07-29T04:24:15;5.00;;;3.40;;
16998;SDS011;10211;49.476;11.010;2023-07-29T04:26:42;3.77;;;3.07;;
16998;SDS011;10211;49.476;11.010;2023-07-29T04:29:09;5.90;;;3.37;;
16998;SDS011;10211;49.476;11.010;2023-07-29T04:31:37;4.13;;;3.13;;
16998;SDS011;10211;49.476;11.010;2023-07-29T04:34:04;3.43;;;3.13;;
16998;SDS011;10211;49.476;11.010;2023-07-29T04:36:31;3.73;;;2.70;;
16998;SDS011;10211;49.476;11.010;2023-07-29T04:38:58;4.07;;;2.77;;
16998;SDS011;10211;49.476;11.010;2023-07-29T04:41:24;3.70;;;3.40;;
16998;SDS011;10211;49.476;11.010;2023-07-29T04:43:51;3.40;;;2.77;;
16998;SDS011;10211;49.476;11.010;2023-07-29T04:46:18;2.90;;;2.67;;
16998;SDS011;10211;49.476;11.010;2023-07-29T04:48:46;3.37;;;3.07;;
16998;SDS011;10211;49.476;11.010;2023-07-29T04:51:13;3.03;;;2.73;;
16998;SDS011;10211;49.476;11.010;2023-07-29T04:53:39;3.40;;;3.00;;
16998;SDS011;10211;49.476;11.010;2023-07-29T04:56:06;4.20;;;2.60;;
16998;SDS011;10211;49.476;11.010;2023-07-29T04:58:33;3.37;;;2.63;;
16998;SDS011;10211;49.476;11.010;2023-07-29T05:01:00;2.90;;;2.60;;
16998;SDS011;10211;49.476;11.010;2023-07-29T05:03:27;3.00;;;2.60;;
16998;SDS011;10211;49.476;11.010;2023-07-29T05:05:56;2.83;;;2.33;;
16998;SDS011;10211;49.476;11.010;2023-07-29T05:08:24;2.67;;;2.03;;
16998;SDS011;10211;49.476;11.010;2023-07-29T05:10:51;2.40;;;2.20;;
16998;SDS011;10211;49.476;11.010;2023-07-29T05:13:19;2.33;;;1.63;;
16998;SDS011;10211;49.476;11.010;2023-07-29T05:15:46;2.53;;;2.33;;
16998;SDS011;10211;49.476;11.010;2023-07-29T05:18:14;2.20;;;2.00;;
16998;SDS011;10211;49.476;11.010;2023-07-29T05:20:41;4.30;;;2.17;;
16998;SDS011;10211;49.476;11.010;2023-07-29T05:23:09;2.27;;;2.07;;
16998;SDS011;10211;49.476;11.010;2023-07-29T05:25:36;2.60;;;2.40;;
16998;SDS011;10211;49.476;11.010;2023-07-29T05:28:03;2.60;;;2.40;;
16998;SDS011;10211;49.476;11.010;2023-07-29T05:30:30;3.17;;;2.67;;
16998;SDS011;10211;49.476;11.010;2023-07-29T05:32:58;2.77;;;2.37;;
16998;SDS011;10211;49.476;11.010;2023-07-29T05:35:25;2.63;;;2.30;;
16998;SDS011;10211;49.476;11.010;2023-07-29T05:37:52;2.53;;;2.10;;
16998;SDS011;10211;49.476;11.010;2023-07-29T05:40:20;4.47;;;2.30;;
16998;SDS011;10211;49.476;11.010;2023-07-29T05:42:47;2.60;;;2.40;;
16998;SDS011;10211;49.476;11.010;2023-07-29T05:45:14;2.43;;;2.23;;
16998;SDS011;10211;49.476;11.010;2023-07-29T05:47:41;1.90;;;1.73;;
16998;SDS011;10211;49.476;11.010;2023-07-29T05:50:08;4.30;;;1.93;;
16998;SDS011;10211;49.476;11.010;2023-07-29T05:52:35;2.80;;;2.03;;
16998;SDS011;10211;49.476;11.010;2023-07-29T05:55:02;1.87;;;1.53;;
16998;SDS011;10211;49.476;11.010;2023-07-29T05:57:31;1.50;;;1.40;;
16998;SDS011;10211;49.476;11.010;2023-07-29T05:59:58;2.10;;;1.60;;
16998;SDS011;10211;49.476;11.010;2023-07-29T06:02:25;2.47;;;1.20;;
16998;SDS011;10211;49.476;11.010;2023-07-29T06:04:51;2.13;;;1.93;;
16998;SDS011;10211;49.476;11.010;2023-07-29T06:07:18;2.30;;;1.50;;
16998;SDS011;10211;49.476;11.010;2023-07-29T06:09:45;4.63;;;1.60;;
16998;SDS011;10211;49.476;11.010;2023-07-29T06:12:12;3.90;;;1.60;;
16998;SDS011;10211;49.476;11.010;2023-07-29T06:14:40;1.40;;;1.30;;
16998;SDS011;10211;49.476;11.010;2023-07-29T06:17:07;2.23;;;1.30;;
16998;SDS011;10211;49.476;11.010;2023-07-29T06:19:36;2.00;;;1.33;;
16998;SDS011;10211;49.476;11.010;2023-07-29T06:22:03;4.93;;;1.83;;
16998;SDS011;10211;49.476;11.010;2023-07-29T06:24:30;3.07;;;2.00;;
16998;SDS011;10211;49.476;11.010;2023-07-29T06:26:57;2.63;;;1.70;;
16998;SDS011;10211;49.476;11.010;2023-07-29T06:29:24;1.70;;;1.60;;
16998;SDS011;10211;49.476;11.010;2023-07-29T06:31:52;3.77;;;2.00;;
16998;SDS011;10211;49.476;11.010;2023-07-29T06:34:19;1.73;;;1.63;;
16998;SDS011;10211;49.476;11.010;2023-07-29T06:36:46;1.77;;;1.30;;
16998;SDS011;10211;49.476;11.010;2023-07-29T06:39:13;1.57;;;1.37;;
16998;SDS011;10211;49.476;11.010;2023-07-29T06:41:40;3.30;;;1.73;;
16998;SDS011;10211;49.476;11.010;2023-07-29T06:44:06;2.63;;;2.17;;
16998;SDS011;10211;49.476;11.010;2023-07-29T06:46:33;9.13;;;2.97;;
16998;SDS011;10211;49.476;11.010;2023-07-29T06:49:01;5.23;;;3.10;;
16998;SDS011;10211;49.476;11.010;2023-07-29T06:51:28;3.17;;;2.97;;
16998;SDS011;10211;49.476;11.010;2023-07-29T06:53:57;3.17;;;2.90;;
16998;SDS011;10211;49.476;11.010;2023-07-29T06:56:24;4.53;;;3.27;;
16998;SDS011;10211;49.476;11.010;2023-07-29T06:58:51;3.83;;;2.90;;
16998;SDS011;10211;49.476;11.010;2023-07-29T07:01:17;3.43;;;3.23;;
16998;SDS011;10211;49.476;11.010;2023-07-29T07:03:44;4.40;;;3.57;;
16998;SDS011;10211;49.476;11.010;2023-07-29T07:06:12;2.97;;;2.60;;
16998;SDS011;10211;49.476;11.010;2023-07-29T07:08:39;6.47;;;3.17;;
16998;SDS011;10211;49.476;11.010;2023-07-29T07:11:06;4.20;;;2.80;;
16998;SDS011;10211;49.476;11.010;2023-07-29T07:13:33;5.93;;;3.27;;
16998;SDS011;10211;49.476;11.010;2023-07-29T07:16:00;2.97;;;2.80;;
16998;SDS011;10211;49.476;11.010;2023-07-29T07:18:27;4.03;;;3.30;;
16998;SDS011;10211;49.476;11.010;2023-07-29T07:20:53;3.23;;;2.70;;
16998;SDS011;10211;49.476;11.010;2023-07-29T07:23:21;4.77;;;3.07;;
16998;SDS011;10211;49.476;11.010;2023-07-29T07:25:48;2.40;;;2.30;;
16998;SDS011;10211;49.476;11.010;2023-07-29T07:28:15;2.57;;;2.37;;
16998;SDS011;10211;49.476;11.010;2023-07-29T07:30:41;2.67;;;2.47;;
16998;SDS011;10211;49.476;11.010;2023-07-29T07:33:08;6.00;;;2.27;;
16998;SDS011;10211;49.476;11.010;2023-07-29T07:35:35;2.50;;;2.30;;
16998;SDS011;10211;49.476;11.010;2023-07-29T07:38:02;2.23;;;2.00;;
16998;SDS011;10211;49.476;11.010;2023-07-29T07:40:31;5.67;;;1.90;;
16998;SDS011;10211;49.476;11.010;2023-07-29T07:42:57;1.80;;;1.70;;
16998;SDS011;10211;49.476;11.010;2023-07-29T07:45:24;2.10;;;1.90;;
16998;SDS011;10211;49.476;11.010;2023-07-29T07:47:51;2.50;;;1.90;;
16998;SDS011;10211;49.476;11.010;2023-07-29T07:50:18;3.33;;;2.37;;
16998;SDS011;10211;49.476;11.010;2023-07-29T07:52:45;2.43;;;2.17;;
16998;SDS011;10211;49.476;11.010;2023-07-29T07:55:12;2.30;;;2.10;;
16998;SDS011;10211;49.476;11.010;2023-07-29T07:57:40;2.50;;;2.00;;
16998;SDS011;10211;49.476;11.010;2023-07-29T08:00:07;3.13;;;2.33;;
16998;SDS011;10211;49.476;11.010;2023-07-29T08:02:35;4.20;;;2.57;;
16998;SDS011;10211;49.476;11.010;2023-07-29T08:05:02;4.53;;;3.00;;
16998;SDS011;10211;49.476;11.010;2023-07-29T08:07:29;5.63;;;3.17;;
16998;SDS011;10211;49.476;11.010;2023-07-29T08:09:56;25.03;;;5.30;;
16998;SDS011;10211;49.476;11.010;2023-07-29T08:12:22;25.83;;;4.80;;
16998;SDS011;10211;49.476;11.010;2023-07-29T08:14:50;12.97;;;4.57;;
16998;SDS011;10211;49.476;11.010;2023-07-29T08:17:17;4.37;;;3.67;;
16998;SDS011;10211;49.476;11.010;2023-07-29T08:19:44;5.37;;;3.63;;
16998;SDS011;10211;49.476;11.010;2023-07-29T08:22:11;4.50;;;3.60;;
16998;SDS011;10211;49.476;11.010;2023-07-29T08:24:37;3.90;;;3.50;;
16998;SDS011;10211;49.476;11.010;2023-07-29T08:27:04;5.23;;;3.40;;
16998;SDS011;10211;49.476;11.010;2023-07-29T08:29:32;30.03;;;5.33;;
16998;SDS011;10211;49.476;11.010;2023-07-29T08:32:00;14.80;;;4.07;;
16998;SDS011;10211;49.476;11.010;2023-07-29T08:34:26;10.53;;;3.80;;
16998;SDS011;10211;49.476;11.010;2023-07-29T08:36:53;7.90;;;3.50;;
16998;SDS011;10211;49.476;11.010;2023-07-29T08:39:20;3.50;;;3.20;;
16998;SDS011;10211;49.476;11.010;2023-07-29T08:41:49;3.47;;;3.13;;
16998;SDS011;10211;49.476;11.010;2023-07-29T08:44:20;3.73;;;3.43;;
16998;SDS011;10211;49.476;11.010;2023-07-29T08:46:48;3.80;;;3.50;;
16998;SDS011;10211;49.476;11.010;2023-07-29T08:49:17;3.80;;;3.50;;
16998;SDS011;10211;49.476;11.010;2023-07-29T08:51:45;2.80;;;2.57;;
16998;SDS011;10211;49.476;11.010;2023-07-29T08:54:13;3.00;;;2.80;;
16998;SDS011;10211;49.476;11.010;2023-07-29T08:56:41;3.90;;;2.50;;
16998;SDS011;10211;49.476;11.010;2023-07-29T08:59:08;2.87;;;2.67;;
16998;SDS011;10211;49.476;11.010;2023-07-29T09:01:35;1.97;;;1.87;;
16998;SDS011;10211;49.476;11.010;2023-07-29T09:04:02;3.23;;;2.07;;
16998;SDS011;10211;49.476;11.010;2023-07-29T09:06:31;3.23;;;1.70;;
16998;SDS011;10211;49.476;11.010;2023-07-29T09:08:58;2.40;;;1.77;;
16998;SDS011;10211;49.476;11.010;2023-07-29T09:11:25;1.93;;;1.83;;
16998;SDS011;10211;49.476;11.010;2023-07-29T09:13:54;2.43;;;1.67;;
16998;SDS011;10211;49.476;11.010;2023-07-29T09:16:21;2.23;;;1.70;;
16998;SDS011;10211;49.476;11.010;2023-07-29T09:18:48;1.70;;;1.60;;
16998;SDS011;10211;49.476;11.010;2023-07-29T09:21:16;2.20;;;2.00;;
16998;SDS011;10211;49.476;11.010;2023-07-29T09:23:45;2.77;;;2.03;;
16998;SDS011;10211;49.476;11.010;2023-07-29T09:26:11;3.20;;;1.93;;
16998;SDS011;10211;49.476;11.010;2023-07-29T09:28:39;1.63;;;1.57;;
16998;SDS011;10211;49.476;11.010;2023-07-29T09:31:06;2.20;;;2.00;;
16998;SDS011;10211;49.476;11.010;2023-07-29T09:33:44;1.80;;;1.70;;
16998;SDS011;10211;49.476;11.010;2023-07-29T09:36:11;2.93;;;2.03;;
16998;SDS011;10211;49.476;11.010;2023-07-29T09:38:38;1.93;;;1.50;;
16998;SDS011;10211;49.476;11.010;2023-07-29T09:41:06;2.00;;;1.90;;
16998;SDS011;10211;49.476;11.010;2023-07-29T09:43:33;1.80;;;1.70;;
16998;SDS011;10211;49.476;11.010;2023-07-29T09:46:01;3.53;;;1.50;;
16998;SDS011;10211;49.476;11.010;2023-07-29T09:48:32;1.60;;;1.50;;
16998;SDS011;10211;49.476;11.010;2023-07-29T09:50:59;2.00;;;1.80;;
16998;SDS011;10211;49.476;11.010;2023-07-29T09:53:25;5.67;;;1.73;;
16998;SDS011;10211;49.476;11.010;2023-07-29T09:55:53;1.60;;;1.50;;
16998;SDS011;10211;49.476;11.010;2023-07-29T09:58:25;2.40;;;1.47;;
16998;SDS011;10211;49.476;11.010;2023-07-29T10:00:53;2.23;;;1.80;;
16998;SDS011;10211;49.476;11.010;2023-07-29T10:03:20;2.10;;;1.90;;
16998;SDS011;10211;49.476;11.010;2023-07-29T10:05:47;2.57;;;2.23;;
16998;SDS011;10211;49.476;11.010;2023-07-29T10:08:15;5.53;;;2.30;;
16998;SDS011;10211;49.476;11.010;2023-07-29T10:10:44;2.20;;;2.00;;
16998;SDS011;10211;49.476;11.010;2023-07-29T10:13:10;2.10;;;1.90;;
16998;SDS011;10211;49.476;11.010;2023-07-29T10:15:39;4.50;;;2.50;;
16998;SDS011;10211;49.476;11.010;2023-07-29T10:18:06;2.95;;;2.60;;
16998;SDS011;10211;49.476;11.010;2023-07-29T10:20:33;5.30;;;2.17;;
16998;SDS011;10211;49.476;11.010;2023-07-29T10:23:01;1.83;;;1.73;;
16998;SDS011;10211;49.476;11.010;2023-07-29T10:25:36;1.90;;;1.65;;
16998;SDS011;10211;49.476;11.010;2023-07-29T10:28:07;2.20;;;1.50;;
16998;SDS011;10211;49.476;11.010;2023-07-29T10:30:34;1.92;;;1.50;;
16998;SDS011;10211;49.476;11.010;2023-07-29T10:33:03;2.60;;;2.03;;
16998;SDS011;10211;49.476;11.010;2023-07-29T10:35:31;1.92;;;1.33;;
16998;SDS011;10211;49.476;11.010;2023-07-29T10:37:59;2.28;;;1.35;;
16998;SDS011;10211;49.476;11.010;2023-07-29T10:40:43;1.88;;;1.42;;
16998;SDS011;10211;49.476;11.010;2023-07-29T10:43:11;1.45;;;1.35;;
16998;SDS011;10211;49.476;11.010;2023-07-29T10:45:40;2.13;;;1.45;;
16998;SDS011;10211;49.476;11.010;2023-07-29T10:48:09;1.63;;;1.50;;
16998;SDS011;10211;49.476;11.010;2023-07-29T10:50:37;1.23;;;1.17;;
16998;SDS011;10211;49.476;11.010;2023-07-29T10:53:04;1.50;;;1.40;;
16998;SDS011;10211;49.476;11.010;2023-07-29T10:55:32;3.13;;;1.67;;
16998;SDS011;10211;49.476;11.010;2023-07-29T10:58:08;1.60;;;1.50;;
16998;SDS011;10211;49.476;11.010;2023-07-29T11:00:38;2.38;;;1.80;;
16998;SDS011;10211;49.476;11.010;2023-07-29T11:03:08;1.40;;;1.30;;
16998;SDS011;10211;49.476;11.010;2023-07-29T11:05:43;2.92;;;1.45;;
16998;SDS011;10211;49.476;11.010;2023-07-29T11:08:18;1.48;;;1.30;;
16998;SDS011;10211;49.476;11.010;2023-07-29T11:10:57;1.38;;;1.15;;
16998;SDS011;10211;49.476;11.010;2023-07-29T11:13:25;1.13;;;1.00;;
16998;SDS011;10211;49.476;11.010;2023-07-29T11:15:53;1.00;;;0.90;;
16998;SDS011;10211;49.476;11.010;2023-07-29T11:18:22;0.93;;;0.93;;
16998;SDS011;10211;49.476;11.010;2023-07-29T11:20:53;2.67;;;1.23;;
16998;SDS011;10211;49.476;11.010;2023-07-29T11:23:20;1.30;;;1.20;;
16998;SDS011;10211;49.476;11.010;2023-07-29T11:25:53;1.50;;;1.15;;
16998;SDS011;10211;49.476;11.010;2023-07-29T11:28:20;1.65;;;1.23;;
16998;SDS011;10211;49.476;11.010;2023-07-29T11:30:49;1.30;;;1.20;;
16998;SDS011;10211;49.476;11.010;2023-07-29T11:33:17;1.20;;;1.10;;
16998;SDS011;10211;49.476;11.010;2023-07-29T11:35:46;1.20;;;1.02;;
16998;SDS011;10211;49.476;11.010;2023-07-29T11:38:14;0.82;;;0.82;;
16998;SDS011;10211;49.476;11.010;2023-07-29T11:40:42;2.95;;;1.27;;
16998;SDS011;10211;49.476;11.010;2023-07-29T11:43:09;1.20;;;1.10;;
16998;SDS011;10211;49.476;11.010;2023-07-29T11:45:44;2.38;;;2.17;;
16998;SDS011;10211;49.476;11.010;2023-07-29T11:48:11;1.08;;;0.95;;
16998;SDS011;10211;49.476;11.010;2023-07-29T11:50:38;1.02;;;0.93;;
16998;SDS011;10211;49.476;11.010;2023-07-29T11:53:06;0.80;;;0.80;;
16998;SDS011;10211;49.476;11.010;2023-07-29T11:55:33;3.42;;;1.10;;
16998;SDS011;10211;49.476;11.010;2023-07-29T11:58:00;1.40;;;1.30;;
16998;SDS011;10211;49.476;11.010;2023-07-29T12:00:28;0.85;;;0.70;;
16998;SDS011;10211;49.476;11.010;2023-07-29T12:02:55;0.85;;;0.70;;
16998;SDS011;10211;49.476;11.010;2023-07-29T12:05:22;1.13;;;1.02;;
16998;SDS011;10211;49.476;11.010;2023-07-29T12:07:50;1.23;;;0.93;;
16998;SDS011;10211;49.476;11.010;2023-07-29T12:10:19;4.03;;;1.08;;
16998;SDS011;10211;49.476;11.010;2023-07-29T12:12:47;1.48;;;0.90;;
16998;SDS011;10211;49.476;11.010;2023-07-29T12:15:22;0.95;;;0.80;;
16998;SDS011;10211;49.476;11.010;2023-07-29T12:17:51;1.90;;;1.10;;
16998;SDS011;10211;49.476;11.010;2023-07-29T12:20:19;3.80;;;1.02;;
16998;SDS011;10211;49.476;11.010;2023-07-29T12:22:51;0.70;;;0.70;;
16998;SDS011;10211;49.476;11.010;2023-07-29T12:25:20;1.83;;;1.23;;
16998;SDS011;10211;49.476;11.010;2023-07-29T12:27:46;1.55;;;0.88;;
16998;SDS011;10211;49.476;11.010;2023-07-29T12:30:13;1.27;;;1.10;;
16998;SDS011;10211;49.476;11.010;2023-07-29T12:32:43;1.83;;;0.95;;
16998;SDS011;10211;49.476;11.010;2023-07-29T12:35:11;1.05;;;0.90;;
16998;SDS011;10211;49.476;11.010;2023-07-29T12:37:38;0.65;;;0.65;;
16998;SDS011;10211;49.476;11.010;2023-07-29T12:40:08;1.63;;;0.60;;
16998;SDS011;10211;49.476;11.010;2023-07-29T12:42:48;1.08;;;0.70;;
16998;SDS011;10211;49.476;11.010;2023-07-29T12:45:15;1.10;;;0.98;;
16998;SDS011;10211;49.476;11.010;2023-07-29T12:47:42;1.00;;;0.90;;
16998;SDS011;10211;49.476;11.010;2023-07-29T12:50:09;1.67;;;0.95;;
16998;SDS011;10211;49.476;11.010;2023-07-29T12:52:35;0.90;;;0.90;;
16998;SDS011;10211;49.476;11.010;2023-07-29T12:55:02;2.50;;;0.80;;
16998;SDS011;10211;49.476;11.010;2023-07-29T12:57:31;2.05;;;0.70;;
16998;SDS011;10211;49.476;11.010;2023-07-29T12:59:58;1.27;;;0.77;;
16998;SDS011;10211;49.476;11.010;2023-07-29T13:02:24;0.90;;;0.90;;
16998;SDS011;10211;49.476;11.010;2023-07-29T13:04:51;3.22;;;0.90;;
16998;SDS011;10211;49.476;11.010;2023-07-29T13:07:18;1.90;;;1.13;;
16998;SDS011;10211;49.476;11.010;2023-07-29T13:09:45;1.08;;;0.98;;
16998;SDS011;10211;49.476;11.010;2023-07-29T13:12:13;1.55;;;0.98;;
16998;SDS011;10211;49.476;11.010;2023-07-29T13:14:43;2.10;;;1.48;;
16998;SDS011;10211;49.476;11.010;2023-07-29T13:17:11;1.55;;;1.02;;
16998;SDS011;10211;49.476;11.010;2023-07-29T13:19:38;1.02;;;0.93;;
16998;SDS011;10211;49.476;11.010;2023-07-29T13:22:05;1.27;;;0.88;;
16998;SDS011;10211;49.476;11.010;2023-07-29T13:24:32;0.75;;;0.75;;
16998;SDS011;10211;49.476;11.010;2023-07-29T13:26:59;1.42;;;0.85;;
16998;SDS011;10211;49.476;11.010;2023-07-29T13:29:25;1.33;;;0.70;;
16998;SDS011;10211;49.476;11.010;2023-07-29T13:31:53;1.30;;;0.80;;
16998;SDS011;10211;49.476;11.010;2023-07-29T13:34:20;0.65;;;0.60;;
16998;SDS011;10211;49.476;11.010;2023-07-29T13:36:47;0.60;;;0.60;;
16998;SDS011;10211;49.476;11.010;2023-07-29T13:39:14;0.63;;;0.63;;
16998;SDS011;10211;49.476;11.010;2023-07-29T13:41:41;0.75;;;0.73;;
16998;SDS011;10211;49.476;11.010;2023-07-29T13:44:08;0.82;;;0.82;;
16998;SDS011;10211;49.476;11.010;2023-07-29T13:46:34;0.88;;;0.73;;
16998;SDS011;10211;49.476;11.010;2023-07-29T13:49:03;0.80;;;0.80;;
16998;SDS011;10211;49.476;11.010;2023-07-29T13:51:29;0.82;;;0.82;;
16998;SDS011;10211;49.476;11.010;2023-07-29T13:53:56;1.13;;;0.82;;
16998;SDS011;10211;49.476;11.010;2023-07-29T13:56:23;1.90;;;0.60;;
16998;SDS011;10211;49.476;11.010;2023-07-29T13:58:50;2.63;;;0.70;;
16998;SDS011;10211;49.476;11.010;2023-07-29T14:01:16;1.05;;;0.90;;
16998;SDS011;10211;49.476;11.010;2023-07-29T14:03:43;0.85;;;0.85;;
16998;SDS011;10211;49.476;11.010;2023-07-29T14:06:11;2.38;;;0.68;;
16998;SDS011;10211;49.476;11.010;2023-07-29T14:08:38;1.00;;;0.90;;
16998;SDS011;10211;49.476;11.010;2023-07-29T14:11:06;0.80;;;0.80;;
16998;SDS011;10211;49.476;11.010;2023-07-29T14:13:33;5.25;;;0.70;;
16998;SDS011;10211;49.476;11.010;2023-07-29T14:16:00;1.92;;;0.90;;
16998;SDS011;10211;49.476;11.010;2023-07-29T14:18:27;0.50;;;0.50;;
16998;SDS011;10211;49.476;11.010;2023-07-29T14:20:54;0.68;;;0.68;;
16998;SDS011;10211;49.476;11.010;2023-07-29T14:23:22;0.77;;;0.68;;
16998;SDS011;10211;49.476;11.010;2023-07-29T14:25:48;0.75;;;0.65;;
16998;SDS011;10211;49.476;11.010;2023-07-29T14:28:15;0.95;;;0.60;;
16998;SDS011;10211;49.476;11.010;2023-07-29T14:30:42;0.68;;;0.60;;
16998;SDS011;10211;49.476;11.010;2023-07-29T14:33:08;0.70;;;0.70;;
16998;SDS011;10211;49.476;11.010;2023-07-29T14:35:36;0.70;;;0.70;;